createdAt,value
2018-08-04T00:01:53.915Z,69.10
2018-08-04T00:04:22.602Z,69.90
2018-08-04T00:06:51.055Z,70.10
2018-08-04T00:09:20.108Z,69.80
2018-08-04T00:11:48.558Z,69.70
2018-08-04T00:14:17.021Z,69.00
2018-08-04T00:16:45.794Z,69.30
2018-08-04T00:19:14.238Z,69.90
2018-08-04T00:21:42.710Z,70.40
2018-08-04T00:24:11.174Z,70.60
2018-08-04T00:26:39.606Z,70.60
2018-08-04T00:29:08.070Z,70.20
2018-08-04T00:31:36.531Z,70.90
2018-08-04T00:34:04.971Z,71.70
2018-08-04T00:36:33.674Z,71.90
2018-08-04T00:39:02.154Z,72.10
2018-08-04T00:41:30.840Z,72.00
2018-08-04T00:43:59.897Z,72.30
2018-08-04T00:46:28.617Z,72.10
2018-08-04T00:48:57.713Z,72.40
2018-08-04T00:51:26.155Z,73.10
2018-08-04T00:53:54.614Z,73.90
2018-08-04T00:58:51.250Z,74.50
2018-08-04T01:01:20.101Z,74.10
2018-08-04T01:03:48.534Z,73.80
2018-08-04T01:06:17.064Z,74.00
2018-08-04T01:08:45.899Z,74.40
2018-08-04T01:11:15.551Z,75.30
2018-08-04T01:13:44.178Z,76.00
2018-08-04T01:16:12.908Z,75.60
2018-08-04T01:18:41.383Z,75.70
2018-08-04T01:21:10.142Z,75.90
2018-08-04T01:23:38.897Z,76.40
2018-08-04T01:26:07.394Z,77.00
2018-08-04T01:31:04.035Z,76.60
2018-08-04T01:33:32.807Z,75.90
2018-08-04T01:36:01.303Z,75.30
2018-08-04T01:38:30.091Z,74.90
2018-08-04T01:40:58.596Z,74.30
2018-08-04T01:43:27.267Z,74.80
2018-08-04T01:45:55.741Z,74.00
2018-08-04T01:48:24.175Z,74.50
2018-08-04T01:50:52.891Z,74.50
2018-08-04T01:53:21.341Z,74.60
2018-08-04T01:55:49.850Z,74.60
2018-08-04T01:58:18.419Z,74.50
2018-08-04T02:00:46.930Z,74.80
2018-08-04T02:03:15.439Z,74.80
2018-08-04T02:05:43.951Z,75.10
2018-08-04T02:08:13.486Z,74.90
2018-08-04T02:10:41.986Z,75.20
2018-08-04T02:13:10.430Z,75.30
2018-08-04T02:15:39.268Z,75.30
2018-08-04T02:18:07.713Z,76.00
2018-08-04T02:20:36.184Z,76.30
2018-08-04T02:23:04.914Z,76.50
2018-08-04T02:25:33.638Z,76.40
2018-08-04T02:28:02.066Z,76.70
2018-08-04T02:30:30.539Z,76.30
2018-08-04T02:32:58.990Z,76.00
2018-08-04T02:35:28.093Z,75.70
2018-08-04T02:37:56.539Z,75.80
2018-08-04T02:40:25.346Z,75.70
2018-08-04T02:42:54.117Z,75.70
2018-08-04T02:45:22.594Z,76.00
2018-08-04T02:47:51.034Z,75.70
2018-08-04T02:50:19.508Z,76.50
2018-08-04T02:52:47.943Z,75.10
2018-08-04T02:55:16.399Z,74.90
2018-08-04T02:57:44.839Z,75.20
2018-08-04T03:00:13.624Z,74.90
2018-08-04T03:02:42.352Z,74.80
2018-08-04T03:05:10.876Z,74.80
2018-08-04T03:07:39.362Z,74.90
2018-08-04T03:10:07.899Z,75.20
2018-08-04T03:12:36.631Z,75.40
2018-08-04T03:15:05.618Z,76.10
2018-08-04T03:17:34.425Z,76.80
2018-08-04T03:20:02.927Z,77.50
2018-08-04T03:22:31.610Z,78.00
2018-08-04T03:25:00.394Z,78.10
2018-08-04T03:27:28.863Z,76.90
2018-08-04T03:29:57.343Z,76.80
2018-08-04T03:32:25.813Z,77.40
2018-08-04T03:34:54.595Z,78.00
2018-08-04T03:37:23.063Z,78.60
2018-08-04T03:39:51.510Z,79.10
2018-08-04T03:42:19.967Z,78.50
2018-08-04T03:44:48.411Z,78.20
2018-08-04T03:47:17.175Z,78.40
2018-08-04T03:49:45.675Z,78.40
2018-08-04T03:52:14.171Z,79.40
2018-08-04T03:54:42.659Z,78.70
2018-08-04T03:57:11.144Z,78.90
2018-08-04T03:59:39.679Z,78.80
2018-08-04T04:02:08.104Z,79.20
2018-08-04T04:04:36.593Z,79.70
2018-08-04T04:07:05.154Z,80.00
2018-08-04T04:09:33.651Z,81.10
2018-08-04T04:12:02.125Z,81.50
2018-08-04T04:14:30.575Z,82.60
2018-08-04T04:16:59.047Z,82.90
2018-08-04T04:19:27.519Z,83.50
2018-08-04T04:21:56.279Z,83.70
2018-08-04T04:24:24.988Z,84.30
2018-08-04T04:26:54.087Z,83.90
2018-08-04T04:29:22.903Z,82.90
2018-08-04T04:31:51.374Z,83.00
2018-08-04T04:34:20.157Z,83.40
2018-08-04T04:36:48.664Z,83.80
2018-08-04T04:39:17.128Z,83.90
2018-08-04T04:44:14.031Z,83.10
2018-08-04T04:46:42.510Z,83.30
2018-08-04T04:49:12.051Z,83.20
2018-08-04T04:51:41.478Z,83.40
2018-08-04T04:54:09.995Z,83.10
2018-08-04T04:56:38.526Z,83.10
2018-08-04T04:59:06.999Z,83.40
2018-08-04T05:01:35.731Z,83.70
2018-08-04T05:04:04.194Z,84.10
2018-08-04T05:06:32.680Z,84.50
2018-08-04T05:09:01.371Z,84.80
2018-08-04T05:11:29.883Z,85.10
2018-08-04T05:13:58.315Z,85.10
2018-08-04T05:16:26.798Z,84.70
2018-08-04T05:18:59.041Z,84.00
2018-08-04T05:21:29.717Z,83.80
2018-08-04T05:23:58.510Z,83.50
2018-08-04T05:26:27.475Z,83.10
2018-08-04T05:28:56.517Z,83.30
2018-08-04T05:33:53.481Z,84.00
2018-08-04T05:36:22.514Z,83.50
2018-08-04T05:38:51.303Z,84.00
2018-08-04T05:41:20.090Z,83.50
2018-08-04T05:43:49.082Z,83.20
2018-08-04T05:46:17.599Z,83.20
2018-08-04T05:48:46.062Z,83.30
2018-08-04T05:51:14.569Z,83.90
2018-08-04T05:53:43.544Z,84.50
2018-08-04T05:56:12.030Z,84.60
2018-08-04T06:01:08.747Z,84.40
2018-08-04T06:03:37.487Z,84.10
2018-08-04T06:06:06.080Z,83.10
2018-08-04T06:08:35.203Z,83.30
2018-08-04T06:11:03.683Z,83.50
2018-08-04T06:13:32.734Z,83.30
2018-08-04T06:16:01.432Z,83.90
2018-08-04T06:18:29.906Z,83.60
2018-08-04T06:20:58.431Z,83.50
2018-08-04T06:23:26.942Z,83.60
2018-08-04T06:28:23.615Z,82.60
2018-08-04T06:30:52.071Z,83.00
2018-08-04T06:33:20.830Z,82.40
2018-08-04T06:35:49.351Z,82.60
2018-08-04T06:38:18.172Z,81.80
2018-08-04T06:40:46.617Z,82.00
2018-08-04T06:43:15.091Z,81.90
2018-08-04T06:45:43.534Z,80.80
2018-08-04T06:48:12.031Z,80.60
2018-08-04T06:53:08.675Z,81.00
2018-08-04T06:55:37.387Z,81.10
2018-08-04T06:58:06.245Z,81.30
2018-08-04T07:00:34.683Z,80.40
2018-08-04T07:03:03.223Z,78.70
2018-08-04T07:05:32.258Z,79.10
2018-08-04T07:08:00.783Z,78.50
2018-08-04T07:10:29.273Z,78.50
2018-08-04T07:12:58.062Z,78.70
2018-08-04T07:15:26.524Z,78.30
2018-08-04T07:17:55.321Z,77.90
2018-08-04T07:22:51.970Z,78.10
2018-08-04T07:25:20.675Z,77.80
2018-08-04T07:27:49.160Z,77.50
2018-08-04T07:30:17.622Z,77.00
2018-08-04T07:32:46.302Z,77.60
2018-08-04T07:35:15.091Z,77.60
2018-08-04T07:37:43.878Z,76.80
2018-08-04T07:40:12.357Z,79.00
2018-08-04T07:42:40.866Z,78.90
2018-08-04T07:45:09.327Z,77.90
2018-08-04T07:47:37.843Z,78.50
2018-08-04T07:50:06.749Z,77.70
2018-08-04T07:52:35.270Z,76.40
2018-08-04T07:55:03.811Z,78.00
2018-08-04T07:57:32.566Z,78.10
2018-08-04T08:00:01.344Z,78.30
2018-08-04T08:02:29.832Z,77.90
2018-08-04T08:04:58.360Z,79.10
2018-08-04T08:07:27.079Z,77.80
2018-08-04T08:09:55.575Z,77.40
2018-08-04T08:12:24.319Z,76.70
2018-08-04T08:14:52.991Z,75.50
2018-08-04T08:17:21.565Z,76.50
2018-08-04T08:19:50.278Z,77.50
2018-08-04T08:22:18.787Z,75.30
2018-08-04T08:24:47.264Z,74.00
2018-08-04T08:27:15.774Z,74.70
2018-08-04T08:29:44.589Z,75.30
2018-08-04T08:32:13.312Z,74.60
2018-08-04T08:34:41.778Z,74.10
2018-08-04T08:37:10.273Z,73.20
2018-08-04T08:39:39.003Z,72.80
2018-08-04T08:42:07.516Z,74.00
2018-08-04T08:44:36.270Z,73.20
2018-08-04T08:47:04.775Z,72.50
2018-08-04T08:49:33.286Z,72.20
2018-08-04T08:52:02.191Z,71.60
2018-08-04T08:56:59.100Z,70.50
2018-08-04T08:59:27.834Z,70.50
2018-08-04T09:01:56.279Z,69.90
2018-08-04T09:04:24.747Z,69.30
2018-08-04T09:06:53.229Z,70.70
2018-08-04T09:09:21.714Z,68.00
2018-08-04T09:11:50.220Z,69.60
2018-08-04T09:14:18.729Z,68.30
2018-08-04T09:16:47.174Z,67.80
2018-08-04T09:19:15.658Z,68.30
2018-08-04T09:24:12.351Z,68.80
2018-08-04T09:26:40.812Z,67.60
2018-08-04T09:29:09.536Z,66.60
2018-08-04T09:31:38.471Z,66.90
2018-08-04T09:34:07.002Z,66.30
2018-08-04T09:36:35.730Z,66.80
2018-08-04T09:39:06.097Z,67.30
2018-08-04T09:41:35.947Z,68.40
2018-08-04T09:44:04.426Z,67.10
2018-08-04T09:46:33.229Z,67.70
2018-08-04T09:49:01.735Z,66.00
2018-08-04T09:51:30.436Z,65.00
2018-08-04T09:53:59.539Z,64.10
2018-08-04T09:56:28.007Z,64.50
2018-08-04T09:58:57.140Z,64.20
2018-08-04T10:01:31.022Z,63.90
2018-08-04T10:04:00.113Z,64.10
2018-08-04T10:06:28.585Z,61.80
2018-08-04T10:08:57.047Z,63.70
2018-08-04T10:11:25.605Z,61.50
2018-08-04T10:13:54.291Z,64.90
2018-08-04T10:16:22.781Z,60.60
2018-08-04T10:18:51.569Z,60.20
2018-08-04T10:21:20.126Z,60.00
2018-08-04T10:23:48.938Z,58.80
2018-08-04T10:26:17.687Z,60.20
2018-08-04T10:28:46.167Z,59.00
2018-08-04T10:31:14.951Z,60.60
2018-08-04T10:33:43.454Z,61.70
2018-08-04T10:36:11.907Z,61.10
2018-08-04T10:38:40.463Z,61.10
2018-08-04T10:41:08.889Z,59.90
2018-08-04T10:46:05.593Z,59.20
2018-08-04T10:48:34.067Z,60.60
2018-08-04T10:51:02.550Z,59.20
2018-08-04T10:53:31.059Z,59.60
2018-08-04T10:55:59.557Z,58.80
2018-08-04T10:58:28.305Z,58.70
2018-08-04T11:00:57.015Z,58.90
2018-08-04T11:03:25.507Z,59.50
2018-08-04T11:05:55.111Z,59.90
2018-08-04T11:08:23.570Z,56.30
2018-08-04T11:10:52.041Z,57.70
2018-08-04T11:13:21.307Z,57.20
2018-08-04T11:15:49.842Z,56.70
2018-08-04T11:18:18.319Z,58.00
2018-08-04T11:20:47.106Z,56.30
2018-08-04T11:23:15.577Z,57.50
2018-08-04T11:25:44.078Z,55.90
2018-08-04T11:28:12.839Z,55.40
2018-08-04T11:30:41.614Z,54.50
2018-08-04T11:33:10.077Z,53.00
2018-08-04T11:35:38.623Z,51.80
2018-08-04T11:38:07.067Z,52.70
2018-08-04T11:40:35.895Z,51.20
2018-08-04T11:43:04.338Z,54.10
2018-08-04T11:45:32.839Z,52.50
2018-08-04T11:48:01.300Z,52.10
2018-08-04T11:50:30.122Z,52.90
2018-08-04T11:52:58.641Z,52.30
2018-08-04T11:55:27.111Z,52.20
2018-08-04T11:57:55.971Z,51.90
2018-08-04T12:00:24.464Z,51.40
2018-08-04T12:02:52.907Z,52.10
2018-08-04T12:05:21.427Z,52.90
2018-08-04T12:07:50.227Z,53.70
2018-08-04T12:10:19.288Z,53.40
2018-08-04T12:12:47.903Z,55.50
2018-08-04T12:17:45.024Z,54.20
2018-08-04T12:20:13.489Z,55.10
2018-08-04T12:22:41.997Z,55.70
2018-08-04T12:25:10.463Z,56.00
2018-08-04T12:27:39.639Z,55.70
2018-08-04T12:30:09.131Z,55.10
2018-08-04T12:32:38.244Z,56.10
2018-08-04T12:35:08.036Z,55.70
2018-08-04T12:37:36.889Z,54.90
2018-08-04T12:40:05.394Z,55.60
2018-08-04T12:42:33.887Z,54.50
2018-08-04T12:45:02.559Z,53.80
2018-08-04T12:47:31.100Z,53.50
2018-08-04T12:50:00.026Z,52.50
2018-08-04T12:52:28.473Z,53.30
2018-08-04T12:54:56.963Z,51.40
2018-08-04T12:57:25.447Z,51.20
2018-08-04T12:59:53.950Z,49.70
2018-08-04T13:02:22.725Z,48.80
2018-08-04T13:04:51.302Z,48.10
2018-08-04T13:07:19.753Z,50.50
2018-08-04T13:09:48.499Z,48.40
2018-08-04T13:12:16.941Z,48.30
2018-08-04T13:14:45.464Z,49.40
2018-08-04T13:17:13.956Z,49.30
2018-08-04T13:19:42.445Z,48.10
2018-08-04T13:22:10.914Z,48.70
2018-08-04T13:24:39.373Z,48.40
2018-08-04T13:27:08.067Z,48.80
2018-08-04T13:29:36.618Z,49.50
2018-08-04T13:32:05.120Z,49.60
2018-08-04T13:34:33.651Z,49.30
2018-08-04T13:37:02.195Z,50.60
2018-08-04T13:39:30.904Z,50.40
2018-08-04T13:44:27.567Z,52.20
2018-08-04T13:46:56.062Z,50.90
2018-08-04T13:49:24.596Z,51.00
2018-08-04T13:51:53.099Z,50.20
2018-08-04T13:54:21.659Z,50.50
2018-08-04T13:56:50.159Z,54.00
2018-08-04T13:59:18.622Z,51.80
2018-08-04T14:01:47.124Z,51.80
2018-08-04T14:04:15.903Z,52.90
2018-08-04T14:06:44.731Z,52.80
2018-08-04T14:09:13.247Z,54.20
2018-08-04T14:11:41.780Z,55.80
2018-08-04T14:14:10.616Z,55.90
2018-08-04T14:16:39.160Z,56.50
2018-08-04T14:19:07.728Z,57.40
2018-08-04T14:21:36.591Z,58.80
2018-08-04T14:24:05.140Z,60.90
2018-08-04T14:26:33.618Z,60.10
2018-08-04T14:29:02.180Z,57.70
2018-08-04T14:31:30.728Z,59.40
2018-08-04T14:33:59.221Z,60.00
2018-08-04T14:36:27.709Z,62.10
2018-08-04T14:38:56.201Z,62.30
2018-08-04T14:41:25.066Z,62.60
2018-08-04T14:43:53.566Z,62.00
2018-08-04T14:46:22.136Z,63.00
2018-08-04T14:48:50.608Z,64.60
2018-08-04T14:51:19.192Z,64.10
2018-08-04T14:53:47.641Z,62.40
2018-08-04T14:56:16.160Z,60.20
2018-08-04T14:58:45.905Z,57.50
2018-08-04T15:01:15.652Z,58.50
2018-08-04T15:03:44.438Z,57.10
2018-08-04T15:06:12.975Z,55.60
2018-08-04T15:08:41.754Z,54.20
2018-08-04T15:11:10.245Z,55.20
2018-08-04T15:13:38.724Z,56.00
2018-08-04T15:16:07.526Z,56.40
2018-08-04T15:18:36.238Z,58.40
2018-08-04T15:21:04.735Z,57.90
2018-08-04T15:23:33.189Z,57.50
2018-08-04T15:26:01.695Z,57.20
2018-08-04T15:28:30.270Z,56.80
2018-08-04T15:30:58.775Z,56.60
2018-08-04T15:33:27.267Z,57.30
2018-08-04T15:35:56.011Z,58.20
2018-08-04T15:38:24.849Z,56.70
2018-08-04T15:40:53.344Z,53.90
2018-08-04T15:43:21.840Z,52.50
2018-08-04T15:45:50.690Z,50.80
2018-08-04T15:48:19.137Z,50.90
2018-08-04T15:50:47.731Z,50.00
2018-08-04T15:53:16.476Z,50.10
2018-08-04T15:55:44.925Z,48.40
2018-08-04T15:58:13.412Z,49.50
2018-08-04T16:00:41.904Z,48.90
2018-08-04T16:03:10.388Z,47.80
2018-08-04T16:05:38.876Z,46.20
2018-08-04T16:08:07.458Z,47.90
2018-08-04T16:10:35.923Z,49.30
2018-08-04T16:13:04.427Z,50.40
2018-08-04T16:15:32.914Z,50.90
2018-08-04T16:18:01.397Z,52.10
2018-08-04T16:20:29.857Z,52.30
2018-08-04T16:22:58.626Z,52.20
2018-08-04T16:25:27.356Z,52.00
2018-08-04T16:27:55.839Z,51.80
2018-08-04T16:30:24.577Z,52.70
2018-08-04T16:32:53.074Z,52.50
2018-08-04T16:35:21.559Z,53.20
2018-08-04T16:37:50.067Z,53.50
2018-08-04T16:40:18.527Z,54.00
2018-08-04T16:42:47.014Z,54.50
2018-08-04T16:45:15.796Z,54.40
2018-08-04T16:47:44.305Z,54.70
2018-08-04T16:50:12.776Z,54.80
2018-08-04T16:52:41.245Z,54.70
2018-08-04T16:55:09.730Z,54.70
2018-08-04T16:57:38.214Z,55.40
2018-08-04T17:00:07.523Z,56.10
2018-08-04T17:02:36.295Z,56.20
2018-08-04T17:05:04.856Z,56.40
2018-08-04T17:07:33.354Z,56.50
2018-08-04T17:10:01.848Z,56.20
2018-08-04T17:12:30.383Z,57.20
2018-08-04T17:14:58.878Z,57.20
2018-08-04T17:17:27.404Z,58.10
2018-08-04T17:19:56.761Z,58.00
2018-08-04T17:22:25.598Z,56.90
2018-08-04T17:24:54.112Z,57.60
2018-08-04T17:27:22.596Z,58.00
2018-08-04T17:29:51.127Z,58.20
2018-08-04T17:32:19.603Z,58.40
2018-08-04T17:34:48.086Z,58.80
2018-08-04T17:37:16.661Z,58.60
2018-08-04T17:39:45.355Z,59.00
2018-08-04T17:42:13.827Z,59.50
2018-08-04T17:44:42.316Z,59.50
2018-08-04T17:47:10.819Z,60.10
2018-08-04T17:49:39.328Z,60.10
2018-08-04T17:52:07.824Z,60.60
2018-08-04T17:54:36.545Z,61.00
2018-08-04T17:57:05.258Z,61.00
2018-08-04T17:59:34.306Z,61.50
2018-08-04T18:02:02.795Z,62.10
2018-08-04T18:04:31.257Z,63.10
2018-08-04T18:06:59.774Z,63.20
2018-08-04T18:09:28.248Z,63.50
2018-08-04T18:11:56.757Z,63.70
2018-08-04T18:14:25.192Z,64.10
2018-08-04T18:16:53.650Z,64.40
2018-08-04T18:19:22.108Z,64.00
2018-08-04T18:21:50.671Z,64.20
2018-08-04T18:24:19.142Z,64.60
2018-08-04T18:29:15.760Z,65.70
2018-08-04T18:31:44.212Z,66.20
2018-08-04T18:34:12.757Z,66.80
2018-08-04T18:39:10.244Z,67.80
2018-08-04T18:41:38.759Z,68.00
2018-08-04T18:44:07.311Z,68.10
2018-08-04T18:46:35.773Z,68.50
2018-08-04T18:49:04.255Z,67.50
2018-08-04T18:51:32.712Z,68.40
2018-08-04T18:54:01.203Z,68.90
2018-08-04T18:56:29.675Z,68.60
2018-08-04T19:01:26.333Z,67.30
2018-08-04T19:03:54.809Z,67.20
2018-08-04T19:06:23.359Z,67.00
2018-08-04T19:08:52.186Z,67.70
2018-08-04T19:11:20.667Z,67.80
2018-08-04T19:13:49.197Z,67.40
2018-08-04T19:16:17.711Z,67.60
2018-08-04T19:18:46.176Z,67.70
2018-08-04T19:21:14.626Z,68.50
2018-08-04T19:23:43.153Z,68.80
2018-08-04T19:26:11.616Z,69.30
2018-08-04T19:28:40.796Z,69.30
2018-08-04T19:31:09.262Z,69.30
2018-08-04T19:33:37.734Z,69.00
2018-08-04T19:36:06.230Z,68.70
2018-08-04T19:38:34.720Z,68.50
2018-08-04T19:41:03.186Z,68.00
2018-08-04T19:43:31.675Z,66.50
2018-08-04T19:46:00.441Z,67.10
2018-08-04T19:48:28.936Z,66.80
2018-08-04T19:50:57.688Z,66.70
2018-08-04T19:53:26.481Z,67.20
2018-08-04T19:55:54.926Z,67.60
2018-08-04T19:58:23.416Z,66.50
2018-08-04T20:00:51.910Z,65.50
2018-08-04T20:03:20.403Z,65.30
2018-08-04T20:05:48.875Z,65.60
2018-08-04T20:08:17.475Z,65.80
2018-08-04T20:10:46.031Z,66.00
2018-08-04T20:13:14.612Z,66.70
2018-08-04T20:15:43.183Z,67.20
2018-08-04T20:18:11.695Z,67.30
2018-08-04T20:20:40.151Z,67.10
2018-08-04T20:23:08.693Z,67.00
2018-08-04T20:25:37.155Z,66.50
2018-08-04T20:28:06.020Z,66.00
2018-08-04T20:30:34.490Z,65.90
2018-08-04T20:33:05.307Z,66.00
2018-08-04T20:35:33.846Z,65.90
2018-08-04T20:40:30.450Z,65.70
2018-08-04T20:42:58.908Z,65.20
2018-08-04T20:45:27.386Z,65.10
2018-08-04T20:47:55.883Z,64.70
2018-08-04T20:50:24.363Z,65.00
2018-08-04T20:52:52.892Z,65.20
2018-08-04T20:55:21.377Z,65.00
2018-08-04T20:57:49.843Z,64.80
2018-08-04T21:02:46.478Z,64.70
2018-08-04T21:05:15.021Z,64.70
2018-08-04T21:07:43.483Z,65.00
2018-08-04T21:10:11.971Z,64.60
2018-08-04T21:12:40.441Z,64.70
2018-08-04T21:15:09.041Z,64.40
2018-08-04T21:17:37.503Z,64.80
2018-08-04T21:20:06.364Z,65.00
2018-08-04T21:22:34.846Z,64.80
2018-08-04T21:25:03.386Z,65.00
2018-08-04T21:27:31.972Z,65.30
2018-08-04T21:30:01.071Z,65.20
2018-08-04T21:34:57.687Z,65.70
2018-08-04T21:37:26.158Z,65.60
2018-08-04T21:39:54.727Z,66.10
2018-08-04T21:42:23.211Z,66.10
2018-08-04T21:44:51.982Z,66.30
2018-08-04T21:47:20.455Z,66.40
2018-08-04T21:49:49.459Z,66.90
2018-08-04T21:52:17.964Z,67.50
2018-08-04T21:54:46.448Z,68.40
2018-08-04T21:57:15.163Z,67.90
2018-08-04T21:59:43.819Z,68.30
2018-08-04T22:02:12.297Z,68.50
2018-08-04T22:04:40.780Z,68.70
2018-08-04T22:07:48.301Z,69.50
2018-08-04T22:10:17.136Z,69.80
2018-08-04T22:12:45.898Z,69.90
2018-08-04T22:15:15.370Z,70.30
2018-08-04T22:20:14.638Z,70.80
2018-08-04T22:22:43.473Z,70.50
2018-08-04T22:25:13.519Z,71.30
2018-08-04T22:27:42.057Z,71.00
2018-08-04T22:30:12.821Z,71.10
2018-08-04T22:32:41.893Z,70.70
2018-08-04T22:35:10.558Z,70.70
2018-08-04T22:37:39.601Z,70.40
2018-08-04T22:40:09.281Z,70.30
2018-08-04T22:42:38.058Z,70.30
2018-08-04T22:45:55.272Z,70.20
2018-08-04T22:48:24.231Z,70.10
2018-08-04T22:50:52.690Z,70.10
2018-08-04T22:53:21.158Z,70.50
2018-08-04T22:55:49.674Z,70.60
2018-08-04T22:58:18.171Z,70.30
2018-08-04T23:03:15.253Z,70.40
2018-08-04T23:05:43.920Z,70.80
2018-08-04T23:08:13.133Z,70.50
2018-08-04T23:10:42.035Z,71.00
2018-08-04T23:13:11.338Z,71.10
2018-08-04T23:15:39.912Z,71.10
2018-08-04T23:18:08.831Z,71.40
2018-08-04T23:20:37.418Z,71.70
2018-08-04T23:23:06.231Z,71.70
2018-08-04T23:25:34.728Z,72.00
2018-08-04T23:28:03.470Z,72.10
2018-08-04T23:30:32.346Z,72.60
2018-08-04T23:33:01.107Z,72.10
2018-08-04T23:35:29.643Z,72.30
2018-08-04T23:37:58.088Z,72.50
2018-08-04T23:40:26.650Z,72.80
2018-08-04T23:42:55.105Z,72.80
2018-08-04T23:45:23.684Z,73.20
2018-08-04T23:47:52.136Z,73.60
2018-08-04T23:50:20.913Z,73.70
2018-08-04T23:52:49.667Z,73.80
2018-08-04T23:55:19.034Z,74.00
2018-08-04T23:57:47.482Z,74.40
